Time;durP1;ratioP1;P1;durP2;ratioP2;P2;SDS_P1;SDS_P2;PMS_P1;PMS_P2;Temp;Humidity;BMP_temperature;BMP_pressure;BME280_temperature;BME280_humidity;BME280_pressure;Samples;Min_cycle;Max_cycle;Signal;HPM_P1;HPM_P2
2022/03/28 00:02:26;;;;;;;33.97;12.07;;;;;;;6.90;68.70;97989.13;5003499;28;20581;-56
2022/03/28 00:04:52;;;;;;;30.73;14.23;;;;;;;7.19;68.52;98016.81;5004826;28;20049;-60
2022/03/28 00:07:19;;;;;;;28.48;12.88;;;;;;;7.07;68.75;98022.19;5003435;28;20049;-56
2022/03/28 00:09:45;;;;;;;43.58;16.38;;;;;;;6.94;70.46;98025.91;5004705;28;20517;-56
2022/03/28 00:12:12;;;;;;;22.55;10.73;;;;;;;6.57;70.15;97960.44;5005112;28;20077;-56
2022/03/28 00:14:39;;;;;;;19.38;9.23;;;;;;;6.56;70.38;97966.28;5004584;28;20092;-56
2022/03/28 00:17:06;;;;;;;20.02;9.00;;;;;;;6.88;70.46;98021.69;5005092;28;20058;-61
2022/03/28 00:19:32;;;;;;;22.02;9.98;;;;;;;6.79;70.68;98023.63;5005335;28;20049;-56
2022/03/28 00:22:00;;;;;;;26.30;10.50;;;;;;;6.80;71.02;98025.22;5004966;28;20058;-57
2022/03/28 00:24:27;;;;;;;27.83;11.50;;;;;;;6.78;71.07;98026.69;4978629;28;20062;-56
2022/03/28 00:26:55;;;;;;;28.30;11.48;;;;;;;6.78;71.53;98027.50;5004435;28;20055;-58
2022/03/28 00:29:22;;;;;;;24.25;10.50;;;;;;;6.33;72.35;97976.56;5004329;28;20053;-61
2022/03/28 00:31:49;;;;;;;26.13;10.32;;;;;;;6.32;72.96;98041.00;5004479;28;20054;-58
2022/03/28 00:34:21;;;;;;;25.38;10.57;;;;;;;4.64;75.46;97891.00;5004022;28;20096;-56
2022/03/28 00:36:50;;;;;;;17.83;8.20;;;;;;;4.28;77.85;97925.84;5003365;28;20057;-56
2022/03/28 00:39:19;;;;;;;27.25;9.82;;;;;;;4.17;82.54;98039.59;5004396;28;20137;-59
2022/03/28 00:41:51;;;;;;;34.67;11.18;;;;;;;3.77;85.35;98040.41;5004655;28;20153;-61
2022/03/28 00:44:18;;;;;;;22.67;9.38;;;;;;;3.56;86.62;98044.63;4998664;28;20054;-56
2022/03/28 00:46:45;;;;;;;28.35;11.02;;;;;;;3.67;86.54;98045.25;4984755;28;20050;-60
2022/03/28 00:49:13;;;;;;;25.55;9.15;;;;;;;3.99;85.66;98048.75;4984556;28;20145;-60
2022/03/28 00:51:40;;;;;;;24.75;10.10;;;;;;;4.20;84.89;98047.25;4983345;28;20060;-55
2022/03/28 00:54:07;;;;;;;24.50;10.52;;;;;;;4.44;84.11;98050.56;4984281;28;20050;-57
2022/03/28 00:56:34;;;;;;;24.42;9.07;;;;;;;4.23;82.45;97993.72;4984204;28;20457;-56
2022/03/28 00:59:01;;;;;;;22.67;9.32;;;;;;;4.41;82.87;98058.63;4984890;28;20177;-55
2022/03/28 01:01:28;;;;;;;22.00;9.30;;;;;;;4.17;84.24;98061.53;4983910;28;20508;-61
2022/03/28 01:03:54;;;;;;;30.40;10.70;;;;;;;4.14;84.80;98064.09;4984382;28;20080;-60
2022/03/28 01:06:22;;;;;;;36.45;13.13;;;;;;;4.06;83.13;97983.38;4984579;28;20058;-57
2022/03/28 01:08:49;;;;;;;26.45;11.85;;;;;;;4.63;82.42;98067.72;4984422;28;20068;-58
2022/03/28 01:11:18;;;;;;;30.75;10.35;;;;;;;4.80;80.73;98042.41;4984211;28;20080;-56
2022/03/28 01:13:45;;;;;;;38.00;13.13;;;;;;;3.87;80.62;97960.72;4982770;28;20434;-56
2022/03/28 01:16:12;;;;;;;43.17;13.10;;;;;;;4.42;82.31;98055.56;4984210;28;20054;-60
2022/03/28 01:18:47;;;;;;;45.13;13.02;;;;;;;4.55;82.03;98051.97;4984402;28;20058;-62
2022/03/28 01:21:15;;;;;;;45.20;14.52;;;;;;;4.76;81.32;98055.09;4982609;28;20150;-56
2022/03/28 01:23:42;;;;;;;45.92;15.07;;;;;;;4.91;80.64;98059.44;4984234;28;20072;-60
2022/03/28 01:26:09;;;;;;;34.08;14.02;;;;;;;5.05;79.35;98055.53;4984608;28;20062;-57
2022/03/28 01:28:36;;;;;;;31.20;11.80;;;;;;;5.07;78.59;98052.47;4984414;28;20064;-58
2022/03/28 01:31:03;;;;;;;26.10;10.88;;;;;;;5.18;77.82;98053.88;4982050;28;20540;-60
2022/03/28 01:33:30;;;;;;;33.47;11.27;;;;;;;4.78;79.13;98046.56;4983807;28;20526;-58
2022/03/28 01:35:58;;;;;;;35.30;14.18;;;;;;;4.58;78.71;97988.25;4983997;28;20852;-56
2022/03/28 01:38:25;;;;;;;49.95;18.65;;;;;;;4.77;76.41;98020.25;4984175;28;20050;-60
2022/03/28 01:40:52;;;;;;;40.85;17.42;;;;;;;5.19;76.11;98066.47;4986239;28;20054;-56
2022/03/28 01:43:21;;;;;;;34.92;14.07;;;;;;;5.11;76.65;98047.97;4986790;28;20046;-55
2022/03/28 01:45:48;;;;;;;35.55;16.38;;;;;;;4.95;76.39;98016.53;5003465;28;20081;-60
2022/03/28 01:48:15;;;;;;;33.05;15.40;;;;;;;5.31;76.77;98138.16;5006423;28;20050;-60
2022/03/28 01:50:41;;;;;;;29.33;13.30;;;;;;;5.34;76.70;98068.88;5007980;28;20065;-60
2022/03/28 01:53:08;;;;;;;31.60;12.93;;;;;;;5.36;76.50;98072.13;5007677;28;20520;-59
2022/03/28 01:55:35;;;;;;;37.15;13.60;;;;;;;5.28;76.77;98076.41;5007317;28;20061;-56
2022/03/28 01:58:01;;;;;;;29.30;12.70;;;;;;;5.26;76.86;98062.19;5007444;28;20065;-60
2022/03/28 02:00:28;;;;;;;35.85;17.13;;;;;;;5.39;75.51;98082.47;5007218;28;20606;-60
2022/03/28 02:02:56;;;;;;;29.00;14.18;;;;;;;5.30;75.18;98067.84;5007156;28;20501;-60
2022/03/28 02:05:23;;;;;;;29.58;13.38;;;;;;;5.18;75.42;98048.38;5005768;28;20523;-57
2022/03/28 02:07:50;;;;;;;35.55;12.25;;;;;;;5.23;75.28;98060.03;5007808;28;20062;-61
2022/03/28 02:10:19;;;;;;;26.45;12.05;;;;;;;4.80;75.80;98025.09;5007377;28;20058;-60
2022/03/28 02:12:47;;;;;;;24.77;10.82;;;;;;;4.80;76.94;98072.59;5007739;28;20050;-61
2022/03/28 02:15:14;;;;;;;25.38;10.85;;;;;;;4.79;77.91;98067.41;5006686;28;20219;-60
2022/03/28 02:17:40;;;;;;;37.30;15.60;;;;;;;4.90;77.79;98068.81;5005693;28;20088;-56
2022/03/28 02:20:09;;;;;;;41.95;16.60;;;;;;;4.93;78.28;98069.00;5006524;28;20054;-61
2022/03/28 02:22:37;;;;;;;45.20;18.15;;;;;;;4.62;77.89;98015.91;5005654;28;20057;-56
2022/03/28 02:25:05;;;;;;;40.58;17.02;;;;;;;4.95;77.63;98072.25;5006558;28;20054;-61
2022/03/28 02:27:33;;;;;;;38.97;15.25;;;;;;;4.78;77.81;98050.13;5006958;28;20064;-56
2022/03/28 02:30:00;;;;;;;31.60;14.27;;;;;;;4.87;77.42;98058.44;5006314;28;20516;-57
2022/03/28 02:32:27;;;;;;;31.33;12.40;;;;;;;5.01;77.56;98081.19;5007051;28;20429;-60
2022/03/28 02:34:53;;;;;;;29.60;12.70;;;;;;;4.87;78.11;98069.44;5006451;28;20504;-60
2022/03/28 02:37:20;;;;;;;58.85;21.25;;;;;;;4.90;77.94;98074.31;5006583;28;20516;-61
2022/03/28 02:39:47;;;;;;;45.72;19.02;;;;;;;4.80;78.70;98080.00;5005194;28;20053;-60
2022/03/28 02:42:14;;;;;;;31.17;14.95;;;;;;;4.77;78.08;98083.38;5006754;28;20045;-56
2022/03/28 02:44:41;;;;;;;29.30;12.50;;;;;;;4.69;77.16;98069.22;4998674;28;20160;-60
2022/03/28 02:47:07;;;;;;;24.70;12.00;;;;;;;4.77;76.93;98091.59;4987248;28;20058;-59
2022/03/28 02:49:35;;;;;;;38.38;12.80;;;;;;;4.63;78.36;98103.41;4986367;28;20080;-56
2022/03/28 02:52:02;;;;;;;29.40;12.60;;;;;;;4.51;78.60;98083.91;4986922;28;20054;-61
2022/03/28 02:54:28;;;;;;;35.42;14.70;;;;;;;3.75;78.67;97948.66;4987354;28;20066;-60
2022/03/28 02:56:55;;;;;;;30.33;12.98;;;;;;;4.59;78.73;98096.91;4986791;28;20054;-58
2022/03/28 02:59:22;;;;;;;27.38;12.98;;;;;;;4.55;78.53;98098.63;4986914;28;20074;-60
2022/03/28 03:01:50;;;;;;;27.48;11.40;;;;;;;3.95;79.06;98009.34;4986333;28;20054;-59
2022/03/28 03:04:17;;;;;;;26.48;12.15;;;;;;;4.33;79.28;98087.56;4986522;28;20066;-61
2022/03/28 03:06:43;;;;;;;37.60;14.73;;;;;;;4.23;80.20;98098.75;4986720;28;20173;-58
2022/03/28 03:09:10;;;;;;;33.80;16.15;;;;;;;4.39;80.01;98102.78;4984713;28;20051;-61
2022/03/28 03:11:37;;;;;;;34.63;14.68;;;;;;;4.32;79.53;98096.09;4984622;28;20077;-60
2022/03/28 03:14:05;;;;;;;30.90;13.43;;;;;;;4.34;80.04;98102.91;4986280;28;20054;-56
2022/03/28 03:16:32;;;;;;;24.65;10.82;;;;;;;3.74;80.78;98041.03;4986662;28;20076;-56
2022/03/28 03:18:59;;;;;;;21.65;9.70;;;;;;;4.21;80.87;98111.94;4633763;28;10009043;-56
2022/03/28 03:21:25;;;;;;;22.23;9.43;;;;;;;4.22;80.75;98102.59;4986517;28;20064;-62
2022/03/28 03:23:52;;;;;;;22.27;9.88;;;;;;;4.19;80.83;98111.41;4986241;28;20911;-60
2022/03/28 03:26:19;;;;;;;24.17;12.50;;;;;;;4.12;80.38;98113.75;4985907;28;20060;-61
2022/03/28 03:28:46;;;;;;;23.02;9.93;;;;;;;4.09;80.82;98117.13;4984597;28;20150;-56
2022/03/28 03:31:12;;;;;;;22.67;10.32;;;;;;;4.18;80.92;98123.50;4985631;28;20070;-60
2022/03/28 03:33:39;;;;;;;32.47;13.05;;;;;;;4.08;80.73;98112.72;4986239;28;20058;-58
2022/03/28 03:36:06;;;;;;;37.35;13.45;;;;;;;3.94;80.78;98117.38;4985783;28;20058;-56
2022/03/28 03:38:33;;;;;;;32.92;14.40;;;;;;;3.71;80.20;98074.50;4986058;28;20057;-59
2022/03/28 03:41:00;;;;;;;40.55;15.50;;;;;;;4.01;80.78;98128.78;4985795;28;20047;-56
2022/03/28 03:43:27;;;;;;;33.72;15.38;;;;;;;4.11;80.38;98127.78;4985808;28;20141;-62
2022/03/28 03:45:53;;;;;;;43.50;17.88;;;;;;;4.05;80.13;98132.53;5002878;28;20073;-57
2022/03/28 03:48:20;;;;;;;39.45;17.45;;;;;;;3.65;81.43;98075.69;5005633;28;20064;-61
2022/03/28 03:50:47;;;;;;;30.90;13.52;;;;;;;3.84;81.90;98133.97;5005638;28;20558;-56
2022/03/28 03:53:14;;;;;;;29.58;12.95;;;;;;;3.60;83.32;98138.78;5003666;28;20528;-60
2022/03/28 03:55:41;;;;;;;31.60;12.52;;;;;;;3.66;82.84;98137.59;5005001;28;20054;-57
2022/03/28 03:58:08;;;;;;;29.30;13.32;;;;;;;3.57;83.58;98139.41;5003830;28;20520;-61
2022/03/28 04:00:35;;;;;;;30.98;13.35;;;;;;;3.55;83.50;98136.13;5005461;28;20042;-56
2022/03/28 04:03:03;;;;;;;27.38;12.93;;;;;;;2.98;83.77;98051.63;5003140;28;20081;-61
2022/03/28 04:05:30;;;;;;;27.13;12.10;;;;;;;3.51;83.92;98148.78;5004750;28;20567;-56
2022/03/28 04:07:57;;;;;;;22.98;10.10;;;;;;;3.23;85.11;98160.72;5005343;28;20056;-56
2022/03/28 04:10:24;;;;;;;26.55;10.35;;;;;;;3.18;86.05;98158.03;5005110;28;20061;-57
2022/03/28 04:12:50;;;;;;;30.17;11.30;;;;;;;3.17;86.12;98159.16;5005240;28;20046;-62
2022/03/28 04:15:17;;;;;;;31.98;12.07;;;;;;;3.18;86.31;98149.84;5003266;28;20046;-56
2022/03/28 04:17:44;;;;;;;35.42;13.85;;;;;;;3.19;86.46;98159.69;5004896;28;20053;-57
2022/03/28 04:20:14;;;;;;;30.63;12.88;;;;;;;3.23;86.15;98165.38;5004401;28;20050;-60
2022/03/28 04:22:42;;;;;;;29.98;13.02;;;;;;;2.71;85.76;98087.84;5004578;28;20535;-60
2022/03/28 04:25:09;;;;;;;24.60;11.25;;;;;;;3.34;85.86;98162.19;5004506;28;20089;-56
2022/03/28 04:27:37;;;;;;;25.05;12.05;;;;;;;3.34;85.03;98148.50;5004950;28;20046;-58
2022/03/28 04:30:06;;;;;;;27.27;10.88;;;;;;;3.40;85.96;98171.16;5004401;28;20041;-56
2022/03/28 04:32:33;;;;;;;22.45;9.57;;;;;;;3.19;84.89;98110.41;5002899;28;20068;-59
2022/03/28 04:35:00;;;;;;;27.80;10.70;;;;;;;3.58;84.17;98178.53;5004331;28;20440;-59
2022/03/28 04:37:27;;;;;;;32.65;10.18;;;;;;;3.59;85.08;98175.50;4982926;28;20057;-55
2022/03/28 04:39:53;;;;;;;31.58;12.25;;;;;;;3.06;84.07;98090.09;5004236;28;20076;-57
2022/03/28 04:42:20;;;;;;;38.40;14.68;;;;;;;3.60;84.54;98152.50;5003058;28;20056;-57
2022/03/28 04:44:47;;;;;;;37.03;13.38;;;;;;;3.79;83.41;98158.75;4996153;28;20054;-56
2022/03/28 04:47:13;;;;;;;38.67;12.68;;;;;;;4.01;83.05;98177.28;4984596;28;20054;-57
2022/03/28 04:49:40;;;;;;;35.15;12.48;;;;;;;3.73;82.69;98132.53;4983142;28;20066;-56
2022/03/28 04:52:07;;;;;;;29.60;12.57;;;;;;;4.17;82.16;98187.66;4984791;28;20133;-61
2022/03/28 04:54:36;;;;;;;25.08;11.85;;;;;;;4.25;82.10;98184.25;4982827;28;20058;-59
2022/03/28 04:57:06;;;;;;;24.65;13.35;;;;;;;4.30;81.60;98186.91;4987337;28;20058;-61
2022/03/28 04:59:34;;;;;;;32.42;13.45;;;;;;;4.46;81.00;98188.25;5002910;28;20049;-57
2022/03/28 05:02:00;;;;;;;34.25;13.77;;;;;;;4.48;80.60;98166.00;5003574;28;20049;-57
2022/03/28 05:04:27;;;;;;;35.22;13.45;;;;;;;4.14;80.14;98111.50;5004265;28;20128;-61
2022/03/28 05:06:54;;;;;;;33.85;14.57;;;;;;;4.86;79.90;98194.88;5004549;28;20049;-61
2022/03/28 05:09:20;;;;;;;37.97;16.35;;;;;;;4.95;78.55;98192.25;5002277;28;20050;-62
2022/03/28 05:11:47;;;;;;;28.30;14.20;;;;;;;4.35;77.79;98090.81;5002333;28;20053;-62
2022/03/28 05:14:14;;;;;;;34.03;12.20;;;;;;;5.12;77.12;98192.44;5003727;28;20057;-57
2022/03/28 05:16:40;;;;;;;30.88;12.73;;;;;;;4.90;76.41;98151.94;5002145;28;20054;-58
2022/03/28 05:19:07;;;;;;;29.95;12.45;;;;;;;5.30;75.96;98210.69;5003696;28;20056;-61
2022/03/28 05:21:34;;;;;;;28.15;11.55;;;;;;;5.37;76.58;98197.38;5003857;28;20061;-57
2022/03/28 05:24:01;;;;;;;29.15;13.02;;;;;;;5.50;75.35;98193.78;5003568;28;20136;-59
2022/03/28 05:26:28;;;;;;;28.88;12.68;;;;;;;5.60;75.25;98193.53;5001790;28;20213;-56
2022/03/28 05:28:54;;;;;;;32.88;11.95;;;;;;;5.50;74.88;98177.28;5001825;28;20057;-57
2022/03/28 05:31:21;;;;;;;38.42;14.95;;;;;;;5.61;75.53;98190.47;5003040;28;20064;-59
2022/03/28 05:33:48;;;;;;;29.08;13.77;;;;;;;4.66;75.70;98031.44;5004038;28;20050;-56
2022/03/28 05:36:15;;;;;;;26.63;11.80;;;;;;;5.62;76.67;98150.88;5003610;28;20060;-56
2022/03/28 05:38:43;;;;;;;26.90;13.30;;;;;;;6.17;74.39;98195.47;5002168;28;20053;-63
2022/03/28 05:41:10;;;;;;;34.00;14.32;;;;;;;6.32;72.64;98210.78;5003655;28;20065;-56
2022/03/28 05:43:38;;;;;;;34.00;13.73;;;;;;;6.32;72.96;98184.06;5003515;28;20054;-64
2022/03/28 05:46:05;;;;;;;35.13;15.50;;;;;;;4.11;71.73;97897.47;4987669;28;20053;-63
2022/03/28 05:48:32;;;;;;;34.53;15.18;;;;;;;6.49;72.19;98205.38;4989175;28;20126;-57
2022/03/28 05:50:59;;;;;;;32.05;15.77;;;;;;;6.64;72.83;98204.97;4991149;28;20065;-65
2022/03/28 05:53:26;;;;;;;30.98;15.32;;;;;;;6.06;72.54;98117.06;4987349;28;20501;-59
2022/03/28 05:55:52;;;;;;;36.40;15.55;;;;;;;6.71;72.05;98197.88;4989900;28;20050;-64
2022/03/28 05:58:19;;;;;;;33.90;13.90;;;;;;;6.46;71.70;98162.78;4988258;28;20076;-58
2022/03/28 06:00:46;;;;;;;43.13;14.23;;;;;;;6.85;72.18;98193.06;4993814;28;20161;-61
2022/03/28 06:03:13;;;;;;;31.95;15.10;;;;;;;6.87;71.93;98184.50;4998544;28;20461;-64
2022/03/28 06:06:00;;;;;;;28.67;12.75;;;;;;;6.92;72.14;98187.94;4985953;28;20054;-56
2022/03/28 06:08:26;;;;;;;25.50;12.05;;;;;;;7.14;71.47;98189.75;4984340;28;20369;-59
2022/03/28 06:10:55;;;;;;;27.25;11.93;;;;;;;7.31;71.37;98189.81;4990133;28;20045;-65
2022/03/28 06:13:21;;;;;;;28.40;11.30;;;;;;;7.24;71.96;98159.94;4992288;28;20050;-66
2022/03/28 06:15:49;;;;;;;24.33;11.98;;;;;;;7.52;71.76;98186.09;4992999;28;20065;-60
2022/03/28 06:18:16;;;;;;;25.52;11.63;;;;;;;7.86;69.41;98184.50;4990250;28;20423;-60
2022/03/28 06:20:43;;;;;;;26.45;12.07;;;;;;;8.21;67.70;98197.13;4994261;28;20065;-62
2022/03/28 06:23:12;;;;;;;26.15;12.05;;;;;;;8.19;66.79;98163.53;4987175;28;20054;-57
2022/03/28 06:25:39;;;;;;;22.35;11.38;;;;;;;7.41;66.80;98038.69;4991653;28;20564;-58
2022/03/28 06:28:06;;;;;;;27.17;12.13;;;;;;;8.53;66.75;98177.28;4987852;28;20050;-57
2022/03/28 06:30:33;;;;;;;26.73;12.70;;;;;;;8.22;65.72;98093.88;5003293;28;20056;-55
2022/03/28 06:32:59;;;;;;;28.60;12.60;;;;;;;9.16;63.84;98177.19;4991186;28;20047;-63
2022/03/28 06:35:26;;;;;;;25.17;11.32;;;;;;;8.91;63.27;98106.28;4997065;28;20082;-58
2022/03/28 06:37:53;;;;;;;22.65;11.50;;;;;;;9.46;61.51;98184.31;4997287;28;20069;-68
2022/03/28 06:40:21;;;;;;;26.17;9.98;;;;;;;9.65;59.73;98187.44;4998696;28;20077;-67
2022/03/28 06:42:48;;;;;;;20.13;9.35;;;;;;;9.87;59.27;98184.34;4996857;28;20053;-70
2022/03/28 06:45:16;;;;;;;18.67;8.68;;;;;;;9.58;57.99;98153.19;4995675;28;20050;-68
2022/03/28 06:47:51;;;;;;;22.58;10.77;;;;;;;8.45;58.81;97982.91;4991311;28;20080;-71
2022/03/28 06:50:26;;;;;;;22.80;10.52;;;;;;;9.96;57.98;98176.78;4995485;28;20496;-67
2022/03/28 06:52:53;;;;;;;22.33;9.90;;;;;;;10.06;57.35;98181.91;4995654;28;20060;-69
2022/03/28 06:55:20;;;;;;;22.58;9.68;;;;;;;10.16;57.13;98159.34;4994870;28;20050;-69
2022/03/28 06:57:48;;;;;;;20.80;8.98;;;;;;;9.76;58.50;98177.59;4988881;28;20058;-56
2022/03/28 07:00:15;;;;;;;21.88;9.38;;;;;;;10.25;57.16;98173.13;5000081;28;20053;-57
2022/03/28 07:02:43;;;;;;;20.13;8.30;;;;;;;10.53;56.26;98169.41;4997830;28;20073;-66
2022/03/28 07:05:10;;;;;;;23.67;9.20;;;;;;;10.68;55.56;98171.50;4994702;28;20053;-57
2022/03/28 07:07:40;;;;;;;26.35;8.85;;;;;;;10.98;54.86;98165.78;4990808;28;20124;-63
2022/03/28 07:10:07;;;;;;;17.80;9.05;;;;;;;9.01;54.04;97819.28;5000003;28;20132;-59
2022/03/28 07:12:34;;;;;;;23.33;9.57;;;;;;;11.52;53.33;98164.38;4997277;28;20046;-56
2022/03/28 07:15:00;;;;;;;16.88;8.98;;;;;;;11.20;53.27;98120.94;4998861;28;20054;-56
2022/03/28 07:17:27;;;;;;;20.23;8.10;;;;;;;11.92;52.96;98165.22;4986843;28;20416;-59
2022/03/28 07:19:54;;;;;;;18.52;8.38;;;;;;;11.50;52.34;98158.38;4994093;28;20893;-55
2022/03/28 07:22:21;;;;;;;23.23;9.55;;;;;;;10.50;51.85;97981.72;4996187;28;20148;-58
2022/03/28 07:24:47;;;;;;;15.85;8.43;;;;;;;11.99;50.95;98143.25;4997418;28;20451;-59
2022/03/28 07:27:14;;;;;;;16.58;8.73;;;;;;;12.03;51.13;98158.84;4989020;28;20394;-57
2022/03/28 07:29:43;;;;;;;25.77;9.70;;;;;;;11.93;51.94;98153.00;5003108;28;20859;-67
2022/03/28 07:32:13;;;;;;;17.65;8.68;;;;;;;11.81;52.17;98153.81;4989569;28;20058;-66
2022/03/28 07:34:44;;;;;;;19.83;9.23;;;;;;;11.82;51.98;98138.00;4994275;28;20077;-55
2022/03/28 07:37:13;;;;;;;18.60;8.23;;;;;;;11.34;52.74;98126.94;4999564;28;20066;-66
2022/03/28 07:39:40;;;;;;;17.95;10.38;;;;;;;11.67;51.83;98144.25;4990327;28;20065;-56
2022/03/28 07:42:07;;;;;;;15.93;8.60;;;;;;;11.93;50.63;98122.44;4997420;28;20497;-63
2022/03/28 07:44:35;;;;;;;19.30;8.23;;;;;;;12.31;50.67;98138.59;4999638;28;20635;-57
2022/03/28 07:47:04;;;;;;;16.35;9.02;;;;;;;12.06;51.21;98138.69;5000571;28;20078;-56
2022/03/28 07:49:31;;;;;;;21.58;8.50;;;;;;;12.34;50.58;98132.31;4991121;28;20155;-57
2022/03/28 07:51:58;;;;;;;20.13;9.75;;;;;;;12.63;50.27;98123.59;4995114;28;20141;-71
2022/03/28 07:54:25;;;;;;;19.77;9.90;;;;;;;12.04;50.43;98079.13;4990693;28;20081;-59
2022/03/28 07:56:51;;;;;;;17.13;8.95;;;;;;;11.92;50.93;98071.66;4994574;28;20101;-63
2022/03/28 07:59:18;;;;;;;16.17;9.05;;;;;;;12.47;50.55;98115.22;4996807;28;20543;-71
2022/03/28 08:01:46;;;;;;;22.02;8.75;;;;;;;12.39;50.83;98118.19;4991007;28;20042;-69
2022/03/28 08:04:13;;;;;;;22.30;9.40;;;;;;;12.73;50.05;98096.06;4992748;28;20136;-57
2022/03/28 08:06:40;;;;;;;18.00;9.88;;;;;;;12.45;49.47;98067.53;4994142;28;20681;-56
2022/03/28 08:09:06;;;;;;;16.63;8.73;;;;;;;12.61;49.90;98110.06;5012057;28;20517;-65
2022/03/28 08:11:33;;;;;;;17.05;8.57;;;;;;;12.32;50.38;98129.09;4988598;28;20181;-71
2022/03/28 08:14:01;;;;;;;14.60;8.93;;;;;;;12.74;49.41;98086.53;4989403;28;20094;-66
2022/03/28 08:16:28;;;;;;;15.35;8.68;;;;;;;13.25;48.59;98113.28;4995863;28;20049;-55
2022/03/28 08:18:55;;;;;;;15.40;8.40;;;;;;;12.73;48.09;98034.91;4995918;28;20057;-55
2022/03/28 08:21:22;;;;;;;17.10;8.32;;;;;;;13.44;48.44;98106.94;4998326;28;20072;-67
2022/03/28 08:23:48;;;;;;;18.63;8.85;;;;;;;13.49;47.21;98079.66;4987369;28;20054;-57
2022/03/28 08:26:15;;;;;;;12.35;8.13;;;;;;;13.60;46.53;98036.13;4997426;28;20456;-66
2022/03/28 08:28:43;;;;;;;17.90;9.13;;;;;;;13.95;46.42;98074.25;4991571;28;20060;-56
2022/03/28 08:31:10;;;;;;;15.85;9.50;;;;;;;14.44;45.66;98086.38;4994985;28;20054;-61
2022/03/28 08:33:37;;;;;;;19.00;8.45;;;;;;;14.48;46.22;98079.69;4991805;28;20049;-66
2022/03/28 08:36:04;;;;;;;17.55;8.32;;;;;;;14.31;45.96;98087.72;4998871;28;20054;-69
2022/03/28 08:38:34;;;;;;;18.65;9.02;;;;;;;14.37;45.37;98072.34;4997241;28;20188;-70
2022/03/28 08:41:02;;;;;;;17.20;10.35;;;;;;;14.56;45.03;98080.63;4991245;28;20056;-55
2022/03/28 08:43:29;;;;;;;16.80;8.70;;;;;;;14.21;45.45;98060.44;4989114;28;20101;-71
2022/03/28 08:45:56;;;;;;;16.85;8.90;;;;;;;13.85;46.37;98060.91;4987636;28;20042;-55
2022/03/28 08:48:23;;;;;;;17.20;8.90;;;;;;;13.80;46.32;98013.88;4988907;28;20355;-75
2022/03/28 08:50:50;;;;;;;17.30;8.88;;;;;;;13.99;45.61;98044.50;5000468;28;20053;-59
2022/03/28 08:53:17;;;;;;;14.27;8.60;;;;;;;14.29;45.89;98054.66;4988241;28;20060;-66
2022/03/28 08:55:45;;;;;;;14.13;8.57;;;;;;;14.68;44.70;98049.78;4993396;28;20054;-54
2022/03/28 08:58:14;;;;;;;11.93;8.00;;;;;;;14.82;44.63;98056.41;4997669;28;20050;-66
2022/03/28 09:00:42;;;;;;;14.63;8.63;;;;;;;14.69;44.45;98048.59;4988210;28;20141;-70
2022/03/28 09:03:09;;;;;;;15.95;8.68;;;;;;;14.95;44.36;98045.84;4991455;28;20164;-66
2022/03/28 09:05:38;;;;;;;17.45;8.50;;;;;;;15.22;43.79;98055.84;4990172;28;20050;-68
2022/03/28 09:08:08;;;;;;;16.40;8.57;;;;;;;15.30;43.46;98037.22;4991635;28;20050;-56
2022/03/28 09:10:38;;;;;;;24.97;10.43;;;;;;;15.10;44.60;98033.72;4988672;28;20497;-58
2022/03/28 09:13:10;;;;;;;23.08;9.82;;;;;;;15.31;43.61;98020.09;4992585;28;20309;-74
2022/03/28 09:15:58;;;;;;;15.20;9.18;;;;;;;15.49;43.28;98020.34;4994822;28;20057;-55
2022/03/28 09:18:29;;;;;;;18.42;9.20;;;;;;;15.31;44.20;98008.91;4991939;28;20580;-57
2022/03/28 09:21:04;;;;;;;14.68;9.40;;;;;;;15.47;43.49;97950.94;4982970;28;20467;-58
2022/03/28 09:23:34;;;;;;;14.43;9.02;;;;;;;15.20;43.57;98007.97;4982478;28;20141;-64
2022/03/28 09:26:20;;;;;;;16.13;8.75;;;;;;;14.97;44.75;98012.78;4983731;28;20470;-69
2022/03/28 09:28:56;;;;;;;22.23;9.80;;;;;;;14.91;44.30;97975.22;4983912;28;20055;-58
2022/03/28 09:31:37;;;;;;;17.30;9.40;;;;;;;15.38;43.61;98003.44;4983313;28;20062;-56
2022/03/28 09:34:15;;;;;;;17.40;9.23;;;;;;;15.82;43.11;97998.81;4984138;28;20125;-58
2022/03/28 09:36:53;;;;;;;15.32;8.77;;;;;;;15.62;43.11;97990.97;4983682;28;20138;-57
2022/03/28 09:39:28;;;;;;;18.05;8.82;;;;;;;15.73;43.33;97987.16;4983559;28;20500;-74
2022/03/28 09:42:08;;;;;;;20.00;9.15;;;;;;;16.04;43.41;97981.13;4994008;28;20069;-54
2022/03/28 09:44:42;;;;;;;15.90;8.43;;;;;;;15.95;42.20;97933.09;4993603;28;20138;-56
2022/03/28 09:47:31;;;;;;;20.30;9.32;;;;;;;16.23;42.48;97977.31;4980962;28;20125;-73
2022/03/28 09:49:58;;;;;;;17.35;9.88;;;;;;;16.22;41.81;97920.59;4990449;28;20049;-71
2022/03/28 09:52:28;;;;;;;13.88;7.38;;;;;;;15.83;42.49;97964.13;4996192;28;20060;-72
2022/03/28 09:54:58;;;;;;;16.92;9.98;;;;;;;16.27;42.22;97962.19;4985786;28;20069;-55
2022/03/28 09:57:26;;;;;;;16.10;9.15;;;;;;;16.10;41.95;97957.22;4982378;28;20068;-55
2022/03/28 10:00:07;;;;;;;14.52;8.40;;;;;;;13.45;42.09;97494.25;4984204;28;20062;-70
2022/03/28 10:02:35;;;;;;;15.13;8.60;;;;;;;15.89;41.67;97856.41;4987970;28;20078;-56
2022/03/28 10:05:03;;;;;;;18.48;8.57;;;;;;;16.48;41.05;97894.47;4987407;28;20073;-55
2022/03/28 10:07:31;;;;;;;16.95;8.82;;;;;;;16.40;41.72;97927.16;4985376;28;20061;-71
2022/03/28 10:10:00;;;;;;;16.05;9.02;;;;;;;17.09;41.74;97921.63;4990803;28;20057;-57
2022/03/28 10:12:27;;;;;;;15.20;8.77;;;;;;;16.74;41.29;97925.03;4993201;28;20060;-67
2022/03/28 10:15:00;;;;;;;17.52;9.50;;;;;;;16.68;41.16;97925.81;4986793;28;20446;-58
2022/03/28 10:17:28;;;;;;;14.18;9.15;;;;;;;16.83;40.59;97905.91;5000707;28;20046;-71
2022/03/28 10:19:56;;;;;;;23.95;9.98;;;;;;;17.06;41.12;97902.81;4986894;28;20440;-63
2022/03/28 10:22:36;;;;;;;17.55;8.80;;;;;;;16.80;40.42;97855.50;4996542;28;20501;-66
2022/03/28 10:25:08;;;;;;;16.88;9.07;;;;;;;17.44;40.19;97902.22;4994799;28;20564;-56
2022/03/28 10:27:37;;;;;;;17.75;8.88;;;;;;;17.09;39.92;97852.47;4993752;28;20457;-55
2022/03/28 10:30:24;;;;;;;16.85;9.57;;;;;;;17.59;39.50;97847.88;4990975;28;20136;-58
2022/03/28 10:33:09;;;;;;;18.20;8.75;;;;;;;18.23;39.07;97877.59;4995556;28;20497;-58
2022/03/28 10:35:41;;;;;;;14.07;9.15;;;;;;;18.38;38.76;97884.84;4999751;28;20108;-62
2022/03/28 10:38:17;;;;;;;15.20;9.40;;;;;;;17.77;39.08;97798.25;5000440;28;20181;-56
2022/03/28 10:41:01;;;;;;;9.35;8.15;;;;;;;17.78;38.67;97822.28;5002855;28;20566;-62
2022/03/28 10:43:31;;;;;;;14.30;7.68;;;;;;;18.25;38.44;97851.94;4991659;28;20057;-56
2022/03/28 10:46:00;;;;;;;15.90;9.20;;;;;;;17.41;39.29;97807.75;4996138;28;20054;-56
2022/03/28 10:48:39;;;;;;;14.07;8.82;;;;;;;18.29;38.52;97845.13;4997074;28;20050;-62
2022/03/28 10:51:10;;;;;;;16.92;8.02;;;;;;;18.66;37.91;97834.31;4995311;28;20424;-55
2022/03/28 10:53:40;;;;;;;16.27;9.35;;;;;;;18.50;38.06;97831.13;4992506;28;20057;-57
2022/03/28 10:56:19;;;;;;;19.48;8.68;;;;;;;18.86;37.73;97823.41;4993808;28;20062;-62
2022/03/28 10:58:57;;;;;;;20.08;9.43;;;;;;;18.61;37.85;97812.25;5003829;28;20089;-60
2022/03/28 11:01:33;;;;;;;12.95;8.63;;;;;;;18.00;38.99;97776.25;4986040;28;20050;-67
2022/03/28 11:04:04;;;;;;;14.00;8.20;;;;;;;18.03;38.71;97818.31;4985824;28;20058;-66
2022/03/28 11:07:03;;;;;;;17.30;8.32;;;;;;;17.95;38.88;97804.69;4998492;28;20046;-56
2022/03/28 11:09:51;;;;;;;13.77;8.90;;;;;;;18.08;38.82;97744.19;5000018;28;20543;-58
2022/03/28 11:12:21;;;;;;;11.90;8.05;;;;;;;18.23;38.38;97796.25;4991067;28;20056;-56
2022/03/28 11:14:50;;;;;;;16.17;9.52;;;;;;;18.61;38.60;97798.22;5002574;28;20070;-64
2022/03/28 11:17:20;;;;;;;13.85;9.43;;;;;;;18.10;38.31;97789.44;4987807;28;20536;-58
2022/03/28 11:20:18;;;;;;;12.50;8.38;;;;;;;18.37;38.05;97779.41;4989122;28;20115;-57
2022/03/28 11:22:45;;;;;;;16.50;9.18;;;;;;;18.26;38.77;97773.00;5004345;28;20064;-64
2022/03/28 11:25:28;;;;;;;15.25;8.68;;;;;;;18.57;37.51;97769.38;4999382;28;20144;-55
2022/03/28 11:28:13;;;;;;;16.40;8.47;;;;;;;18.86;37.71;97770.88;4985490;28;20504;-63
2022/03/28 11:30:46;;;;;;;11.98;7.93;;;;;;;17.28;37.37;97498.47;4985095;28;20301;-63
2022/03/28 11:33:18;;;;;;;11.98;8.05;;;;;;;18.97;37.42;97726.69;4984142;28;20070;-57
2022/03/28 11:35:59;;;;;;;17.15;9.60;;;;;;;18.77;37.86;97750.06;4984962;28;20560;-63